»·PEaware :: WAT2489 KSLC-KTEX

WAT2489 :: KSLC-KTEX

FLIGHT INFORMATION

Flight Status: Arrived
Operator:
Walker Air Transport
More flights by this operator :: More flights under this callsign
Pilot: Graham D. (41507)
Aircraft: Unknown
(EPIC)
More flights by this aircraft type
Origin: KSLC Salt Lake City Intl
United States
Destination: KTEX Telluride Regl
United States
More flights between these airports :: More routes between these airports
Route: SLC4 FFU V134 JNC V382 ETL
File this flight plan on PilotEdge
Remarks:
Altitude:
(Current/Filed)
25,000ft
Speed:
(Current/Filed)
310kts
Departed: 24-Oct-23 02:06 PM
Arrived: 24-Oct-23 03:14 PM
Distance/Time
Traveled:
254nm/1:08
Distance/Time
To Go:
Arrived

Flight Plot

Page will automatically refresh every two minutes.

Flight plan parsing failed; only flown route is shown


Map Options




Map Legend


Flown Route
Filed Route
Departure Airport
Arrival Airport
Navaid (VOR, NDB)
Fix

Horizontal Profiles

Position Reports

Time Latitude Longitude Heading Altitude Ground
Speed
24-Oct-23 13:53 40.779164 -111.958766 359 4225ft 0kts
24-Oct-23 13:54 40.779164 -111.958766 359 4225ft 0kts
24-Oct-23 13:55 40.779164 -111.958766 359 4225ft 0kts
24-Oct-23 13:56 40.779164 -111.958766 359 4225ft 0kts
24-Oct-23 13:57 40.779164 -111.958766 359 4225ft 0kts
24-Oct-23 13:58 40.779164 -111.958766 359 4225ft 0kts
24-Oct-23 13:59 40.779164 -111.958766 359 4225ft 0kts
24-Oct-23 14:00 40.779164 -111.958766 359 4225ft 0kts
24-Oct-23 14:01 40.779164 -111.958766 359 4225ft 0kts
24-Oct-23 14:02 40.778811 -111.959983 230 4225ft 10kts
24-Oct-23 14:03 40.774474 -111.960616 180 4228ft 20kts
24-Oct-23 14:04 40.772869 -111.960813 223 4228ft 0kts
24-Oct-23 14:05 40.772548 -111.961806 303 4229ft 28kts
24-Oct-23 14:05 40.797280 -111.966504 315 5202ft 156kts
24-Oct-23 14:06 40.814369 -112.018110 290 8609ft 160kts
24-Oct-23 14:07 40.829375 -112.083836 253 10249ft 238kts
24-Oct-23 14:09 40.807548 -112.169972 251 13663ft 211kts
24-Oct-23 14:09 40.791233 -112.230836 251 15380ft 215kts
24-Oct-23 14:10 40.741810 -112.244853 151 17147ft 249kts
24-Oct-23 14:11 40.679766 -112.202828 157 18778ft 255kts
24-Oct-23 14:12 40.610249 -112.157590 156 19002ft 300kts
24-Oct-23 14:13 40.542475 -112.113475 157 21139ft 263kts
24-Oct-23 14:14 40.476154 -112.070483 157 22293ft 269kts
24-Oct-23 14:15 40.408401 -112.026638 157 23305ft 275kts
24-Oct-23 14:16 40.339365 -111.982070 157 24321ft 278kts
24-Oct-23 14:17 40.271769 -111.932413 131 25006ft 293kts
24-Oct-23 14:18 40.220814 -111.843303 127 24990ft 316kts
24-Oct-23 14:19 40.168185 -111.748986 127 24992ft 325kts
24-Oct-23 14:20 40.114687 -111.653391 127 24992ft 328kts
24-Oct-23 14:21 40.060456 -111.556791 127 24984ft 330kts
24-Oct-23 14:22 40.006024 -111.460109 127 24984ft 331kts
24-Oct-23 14:23 39.951713 -111.363925 127 24983ft 330kts
24-Oct-23 14:24 39.897239 -111.267747 128 24980ft 329kts
24-Oct-23 14:25 39.843092 -111.172435 128 24980ft 328kts
24-Oct-23 14:26 39.788977 -111.077462 128 24982ft 327kts
24-Oct-23 14:27 39.734693 -110.982478 128 24986ft 327kts
24-Oct-23 14:28 39.680435 -110.887834 128 24990ft 327kts
24-Oct-23 14:29 39.626078 -110.793302 128 24975ft 327kts
24-Oct-23 14:30 39.585738 -110.688070 110 24961ft 330kts
24-Oct-23 14:31 39.555647 -110.575992 110 24951ft 330kts
24-Oct-23 14:32 39.525416 -110.463688 110 24941ft 330kts
24-Oct-23 14:33 39.495059 -110.351426 110 24938ft 331kts
24-Oct-23 14:34 39.464577 -110.239186 111 24934ft 330kts
24-Oct-23 14:35 39.434038 -110.127251 111 24935ft 330kts
24-Oct-23 14:36 39.403336 -110.015195 111 24935ft 330kts
24-Oct-23 14:37 39.372620 -109.903561 112 24935ft 330kts
24-Oct-23 14:38 39.341782 -109.792009 112 24936ft 330kts
24-Oct-23 14:39 39.310847 -109.680561 112 24936ft 330kts
24-Oct-23 14:40 39.279802 -109.569221 112 24937ft 330kts
24-Oct-23 14:41 39.248661 -109.458002 113 24937ft 329kts
24-Oct-23 14:42 39.217493 -109.347152 114 24937ft 329kts
24-Oct-23 14:43 39.186159 -109.236201 114 24933ft 328kts
24-Oct-23 14:44 39.154885 -109.125918 114 24940ft 328kts
24-Oct-23 14:45 39.123540 -109.015861 114 24953ft 327kts
24-Oct-23 14:46 39.092103 -108.905935 115 24961ft 327kts
24-Oct-23 14:47 39.056122 -108.800094 142 24976ft 312kts
24-Oct-23 14:48 38.981459 -108.751214 162 24967ft 301kts
24-Oct-23 14:49 38.904152 -108.710130 162 24975ft 301kts
24-Oct-23 14:50 38.825830 -108.668739 162 24462ft 315kts
24-Oct-23 14:51 38.742580 -108.624820 161 23367ft 332kts
24-Oct-23 14:52 38.656018 -108.579261 161 22188ft 339kts
24-Oct-23 14:53 38.571095 -108.534689 161 20915ft 323kts
24-Oct-23 14:54 38.488859 -108.491639 161 19616ft 317kts
24-Oct-23 14:55 38.407697 -108.449261 161 18329ft 317kts
24-Oct-23 14:56 38.327250 -108.407343 161 17036ft 302kts
24-Oct-23 14:57 38.253490 -108.369010 161 16058ft 280kts
24-Oct-23 14:58 38.181985 -108.331903 161 14856ft 276kts
24-Oct-23 14:59 38.112591 -108.295982 161 13674ft 264kts
24-Oct-23 15:00 38.047083 -108.259727 139 12914ft 250kts
24-Oct-23 15:01 38.013152 -108.191979 108 12938ft 221kts
24-Oct-23 15:02 37.998882 -108.123483 108 12829ft 174kts
24-Oct-23 15:03 37.988657 -108.074458 108 11954ft 124kts
24-Oct-23 15:04 37.980256 -108.034368 108 11199ft 114kts
24-Oct-23 15:05 37.972130 -107.995625 107 10479ft 114kts
24-Oct-23 15:06 37.963968 -107.956888 107 9760ft 111kts
24-Oct-23 15:07 37.955326 -107.919172 111 9429ft 124kts
24-Oct-23 15:08 37.932400 -107.909307 245 10108ft 156kts
24-Oct-23 15:09 37.941339 -107.968691 281 10508ft 166kts
24-Oct-23 15:10 37.966245 -107.993016 47 10117ft 130kts
24-Oct-23 15:11 37.963621 -107.955259 107 9762ft 109kts
24-Oct-23 15:12 37.955548 -107.917060 105 9062ft 112kts
24-Oct-23 15:13 37.952687 -107.901358 15 9073ft 15kts

Navigation Log

Ident Type
Flight plan parsing failed, navigation log unavailable